sensor_id;sensor_type;location;lat;lon;timestamp;pressure;altitude;pressure_sealevel;temperature;humidity
4836;BME280;66719;51.226;6.902;2024-01-30T00:01:57;101982.75;;;9.94;100.00
4836;BME280;66719;51.226;6.902;2024-01-30T00:04:24;101988.81;;;9.88;100.00
4836;BME280;66719;51.226;6.902;2024-01-30T00:06:51;101968.69;;;9.70;100.00
4836;BME280;66719;51.226;6.902;2024-01-30T00:09:19;101974.81;;;9.77;100.00
4836;BME280;66719;51.226;6.902;2024-01-30T00:11:46;101975.72;;;9.83;100.00
4836;BME280;66719;51.226;6.902;2024-01-30T00:14:13;101970.41;;;9.73;100.00
4836;BME280;66719;51.226;6.902;2024-01-30T00:16:40;101972.22;;;9.81;100.00
4836;BME280;66719;51.226;6.902;2024-01-30T00:19:07;101973.03;;;9.67;100.00
4836;BME280;66719;51.226;6.902;2024-01-30T00:21:35;101965.19;;;9.65;100.00
4836;BME280;66719;51.226;6.902;2024-01-30T00:24:01;101972.16;;;9.72;100.00
4836;BME280;66719;51.226;6.902;2024-01-30T00:26:28;101963.50;;;9.78;100.00
4836;BME280;66719;51.226;6.902;2024-01-30T00:28:54;101969.59;;;9.78;100.00
4836;BME280;66719;51.226;6.902;2024-01-30T00:31:21;101960.88;;;9.78;100.00
4836;BME280;66719;51.226;6.902;2024-01-30T00:33:48;101966.97;;;9.81;100.00
4836;BME280;66719;51.226;6.902;2024-01-30T00:36:15;101964.34;;;9.78;100.00
4836;BME280;66719;51.226;6.902;2024-01-30T00:38:41;101963.44;;;9.70;100.00
4836;BME280;66719;51.226;6.902;2024-01-30T00:41:09;101966.94;;;9.69;100.00
4836;BME280;66719;51.226;6.902;2024-01-30T00:43:38;101955.56;;;9.61;100.00
4836;BME280;66719;51.226;6.902;2024-01-30T00:46:04;101957.19;;;9.44;100.00
4836;BME280;66719;51.226;6.902;2024-01-30T00:48:31;101956.31;;;9.43;100.00
4836;BME280;66719;51.226;6.902;2024-01-30T00:50:58;101957.19;;;9.47;100.00
4836;BME280;66719;51.226;6.902;2024-01-30T00:53:24;101958.97;;;9.49;100.00
4836;BME280;66719;51.226;6.902;2024-01-30T00:55:51;101958.00;;;9.37;100.00
4836;BME280;66719;51.226;6.902;2024-01-30T00:58:17;101952.03;;;9.54;100.00
4836;BME280;66719;51.226;6.902;2024-01-30T01:00:46;101964.28;;;9.61;100.00
4836;BME280;66719;51.226;6.902;2024-01-30T01:03:12;101958.16;;;9.64;100.00
4836;BME280;66719;51.226;6.902;2024-01-30T01:05:40;101959.84;;;9.50;100.00
4836;BME280;66719;51.226;6.902;2024-01-30T01:08:07;101966.75;;;9.39;100.00
4836;BME280;66719;51.226;6.902;2024-01-30T01:10:33;101964.16;;;9.43;100.00
4836;BME280;66719;51.226;6.902;2024-01-30T01:13:00;101965.97;;;9.52;100.00
4836;BME280;66719;51.226;6.902;2024-01-30T01:15:27;101956.31;;;9.39;100.00
4836;BME280;66719;51.226;6.902;2024-01-30T01:17:56;101968.38;;;9.23;100.00
4836;BME280;66719;51.226;6.902;2024-01-30T01:20:22;101961.38;;;9.16;100.00
4836;BME280;66719;51.226;6.902;2024-01-30T01:22:49;101961.41;;;9.22;100.00
4836;BME280;66719;51.226;6.902;2024-01-30T01:25:16;101965.72;;;9.20;100.00
4836;BME280;66719;51.226;6.902;2024-01-30T01:27:42;101964.06;;;9.28;100.00
4836;BME280;66719;51.226;6.902;2024-01-30T01:30:11;101965.78;;;9.29;100.00
4836;BME280;66719;51.226;6.902;2024-01-30T01:32:40;101968.44;;;9.32;100.00
4836;BME280;66719;51.226;6.902;2024-01-30T01:35:15;101968.34;;;9.18;100.00
4836;BME280;66719;51.226;6.902;2024-01-30T01:37:42;101964.84;;;9.13;100.00
4836;BME280;66719;51.226;6.902;2024-01-30T01:40:09;101968.25;;;9.06;100.00
4836;BME280;66719;51.226;6.902;2024-01-30T01:42:35;101963.91;;;9.08;100.00
4836;BME280;66719;51.226;6.902;2024-01-30T01:45:02;101958.69;;;9.03;100.00
4836;BME280;66719;51.226;6.902;2024-01-30T01:47:29;101955.13;;;9.00;100.00
4836;BME280;66719;51.226;6.902;2024-01-30T01:49:56;101957.00;;;9.13;100.00
4836;BME280;66719;51.226;6.902;2024-01-30T01:52:23;101949.16;;;9.13;100.00
4836;BME280;66719;51.226;6.902;2024-01-30T01:54:49;101956.13;;;9.16;100.00
4836;BME280;66719;51.226;6.902;2024-01-30T01:57:16;101946.50;;;9.12;100.00
4836;BME280;66719;51.226;6.902;2024-01-30T01:59:43;101951.78;;;9.16;100.00
4836;BME280;66719;51.226;6.902;2024-01-30T02:02:11;101948.31;;;9.19;100.00
4836;BME280;66719;51.226;6.902;2024-01-30T02:04:39;101936.91;;;9.07;100.00
4836;BME280;66719;51.226;6.902;2024-01-30T02:07:06;101943.59;;;8.73;100.00
4836;BME280;66719;51.226;6.902;2024-01-30T02:09:33;101941.78;;;8.63;100.00
4836;BME280;66719;51.226;6.902;2024-01-30T02:12:00;101937.53;;;8.76;100.00
4836;BME280;66719;51.226;6.902;2024-01-30T02:14:26;101941.00;;;8.73;100.00
4836;BME280;66719;51.226;6.902;2024-01-30T02:16:56;101938.44;;;8.80;100.00
4836;BME280;66719;51.226;6.902;2024-01-30T02:19:23;101943.66;;;8.80;100.00
4836;BME280;66719;51.226;6.902;2024-01-30T02:21:50;101937.56;;;8.77;100.00
4836;BME280;66719;51.226;6.902;2024-01-30T02:24:16;101930.53;;;8.72;100.00
4836;BME280;66719;51.226;6.902;2024-01-30T02:26:43;101928.75;;;8.66;100.00
4836;BME280;66719;51.226;6.902;2024-01-30T02:29:10;101930.53;;;8.70;100.00
4836;BME280;66719;51.226;6.902;2024-01-30T02:31:37;101925.41;;;8.84;100.00
4836;BME280;66719;51.226;6.902;2024-01-30T02:34:03;101926.41;;;8.97;100.00
4836;BME280;66719;51.226;6.902;2024-01-30T02:36:30;101924.72;;;9.05;100.00
4836;BME280;66719;51.226;6.902;2024-01-30T02:38:56;101924.72;;;9.03;100.00
4836;BME280;66719;51.226;6.902;2024-01-30T02:41:23;101921.84;;;8.74;100.00
4836;BME280;66719;51.226;6.902;2024-01-30T02:43:49;101931.63;;;8.97;100.00
4836;BME280;66719;51.226;6.902;2024-01-30T02:46:16;101927.22;;;8.90;100.00
4836;BME280;66719;51.226;6.902;2024-01-30T02:48:42;101925.41;;;8.86;100.00
4836;BME280;66719;51.226;6.902;2024-01-30T02:51:09;101922.84;;;8.89;100.00
4836;BME280;66719;51.226;6.902;2024-01-30T02:53:36;101913.28;;;8.94;100.00
4836;BME280;66719;51.226;6.902;2024-01-30T02:56:02;101922.13;;;9.08;100.00
4836;BME280;66719;51.226;6.902;2024-01-30T02:58:29;101920.31;;;8.99;100.00
4836;BME280;66719;51.226;6.902;2024-01-30T03:00:56;101918.69;;;9.12;100.00
4836;BME280;66719;51.226;6.902;2024-01-30T03:03:22;101916.75;;;8.90;100.00
4836;BME280;66719;51.226;6.902;2024-01-30T03:05:49;101903.72;;;8.91;100.00
4836;BME280;66719;51.226;6.902;2024-01-30T03:08:15;101900.22;;;8.94;100.00
4836;BME280;66719;51.226;6.902;2024-01-30T03:10:42;101897.66;;;8.98;100.00
4836;BME280;66719;51.226;6.902;2024-01-30T03:13:09;101892.38;;;8.91;100.00
4836;BME280;66719;51.226;6.902;2024-01-30T03:15:35;101897.69;;;9.01;100.00
4836;BME280;66719;51.226;6.902;2024-01-30T03:18:02;101895.06;;;8.98;100.00
4836;BME280;66719;51.226;6.902;2024-01-30T03:20:32;101894.19;;;9.02;100.00
4836;BME280;66719;51.226;6.902;2024-01-30T03:22:59;101892.50;;;9.07;100.00
4836;BME280;66719;51.226;6.902;2024-01-30T03:25:26;101899.47;;;9.09;100.00
4836;BME280;66719;51.226;6.902;2024-01-30T03:27:53;101895.06;;;9.03;100.00
4836;BME280;66719;51.226;6.902;2024-01-30T03:30:19;101893.31;;;8.96;100.00
4836;BME280;66719;51.226;6.902;2024-01-30T03:32:46;101887.22;;;9.01;100.00
4836;BME280;66719;51.226;6.902;2024-01-30T03:35:12;101895.16;;;9.12;100.00
4836;BME280;66719;51.226;6.902;2024-01-30T03:37:39;101890.00;;;9.21;100.00
4836;BME280;66719;51.226;6.902;2024-01-30T03:40:06;101886.53;;;9.25;100.00
4836;BME280;66719;51.226;6.902;2024-01-30T03:42:32;101886.53;;;9.25;100.00
4836;BME280;66719;51.226;6.902;2024-01-30T03:44:59;101886.56;;;9.34;100.00
4836;BME280;66719;51.226;6.902;2024-01-30T03:47:26;101891.88;;;9.50;100.00
4836;BME280;66719;51.226;6.902;2024-01-30T03:49:52;101885.81;;;9.58;100.00
4836;BME280;66719;51.226;6.902;2024-01-30T03:52:19;101875.41;;;9.68;100.00
4836;BME280;66719;51.226;6.902;2024-01-30T03:54:45;101878.91;;;9.79;100.00
4836;BME280;66719;51.226;6.902;2024-01-30T03:57:12;101875.41;;;9.71;100.00
4836;BME280;66719;51.226;6.902;2024-01-30T03:59:41;101878.00;;;9.72;100.00
4836;BME280;66719;51.226;6.902;2024-01-30T04:02:10;101878.06;;;9.74;100.00
4836;BME280;66719;51.226;6.902;2024-01-30T04:04:37;101870.19;;;9.77;100.00
4836;BME280;66719;51.226;6.902;2024-01-30T04:07:04;101884.88;;;9.43;100.00
4836;BME280;66719;51.226;6.902;2024-01-30T04:09:30;101877.91;;;9.46;100.00
4836;BME280;66719;51.226;6.902;2024-01-30T04:11:58;101873.63;;;9.60;100.00
4836;BME280;66719;51.226;6.902;2024-01-30T04:14:25;101870.97;;;9.48;100.00
4836;BME280;66719;51.226;6.902;2024-01-30T04:16:52;101864.91;;;9.57;100.00
4836;BME280;66719;51.226;6.902;2024-01-30T04:19:18;101870.13;;;9.61;100.00
4836;BME280;66719;51.226;6.902;2024-01-30T04:21:45;101876.28;;;9.65;100.00
4836;BME280;66719;51.226;6.902;2024-01-30T04:24:12;101877.19;;;9.75;100.00
4836;BME280;66719;51.226;6.902;2024-01-30T04:26:38;101864.97;;;9.80;100.00
4836;BME280;66719;51.226;6.902;2024-01-30T04:29:05;101864.97;;;9.77;100.00
4836;BME280;66719;51.226;6.902;2024-01-30T04:31:31;101868.44;;;9.65;100.00
4836;BME280;66719;51.226;6.902;2024-01-30T04:33:58;101858.81;;;9.64;100.00
4836;BME280;66719;51.226;6.902;2024-01-30T04:36:24;101857.06;;;9.57;100.00
4836;BME280;66719;51.226;6.902;2024-01-30T04:38:51;101861.47;;;9.66;100.00
4836;BME280;66719;51.226;6.902;2024-01-30T04:41:18;101852.72;;;9.57;100.00
4836;BME280;66719;51.226;6.902;2024-01-30T04:43:44;101858.81;;;9.58;100.00
4836;BME280;66719;51.226;6.902;2024-01-30T04:46:11;101864.03;;;9.64;100.00
4836;BME280;66719;51.226;6.902;2024-01-30T04:48:38;101860.56;;;9.56;100.00
4836;BME280;66719;51.226;6.902;2024-01-30T04:51:04;101868.41;;;9.63;100.00
4836;BME280;66719;51.226;6.902;2024-01-30T04:53:31;101858.75;;;9.46;100.00
4836;BME280;66719;51.226;6.902;2024-01-30T04:55:58;101864.00;;;9.47;100.00
4836;BME280;66719;51.226;6.902;2024-01-30T04:58:24;101860.59;;;9.65;100.00
4836;BME280;66719;51.226;6.902;2024-01-30T05:00:51;101860.59;;;9.65;100.00
4836;BME280;66719;51.226;6.902;2024-01-30T05:03:19;101869.34;;;9.73;100.00
4836;BME280;66719;51.226;6.902;2024-01-30T05:05:46;101867.59;;;9.75;100.00
4836;BME280;66719;51.226;6.902;2024-01-30T05:08:12;101854.56;;;9.90;100.00
4836;BME280;66719;51.226;6.902;2024-01-30T05:10:39;101867.63;;;9.84;100.00
4836;BME280;66719;51.226;6.902;2024-01-30T05:13:06;101856.22;;;9.66;100.00
4836;BME280;66719;51.226;6.902;2024-01-30T05:15:32;101854.47;;;9.65;100.00
4836;BME280;66719;51.226;6.902;2024-01-30T05:17:59;101848.41;;;9.73;100.00
4836;BME280;66719;51.226;6.902;2024-01-30T05:20:26;101855.41;;;9.83;100.00
4836;BME280;66719;51.226;6.902;2024-01-30T05:22:55;101858.91;;;9.85;100.00
4836;BME280;66719;51.226;6.902;2024-01-30T05:25:21;101855.41;;;9.89;100.00
4836;BME280;66719;51.226;6.902;2024-01-30T05:27:48;101853.66;;;9.87;100.00
4836;BME280;66719;51.226;6.902;2024-01-30T05:30:14;101856.19;;;9.59;100.00
4836;BME280;66719;51.226;6.902;2024-01-30T05:32:41;101853.53;;;9.55;100.00
4836;BME280;66719;51.226;6.902;2024-01-30T05:35:08;101856.16;;;9.52;100.00
4836;BME280;66719;51.226;6.902;2024-01-30T05:37:34;101852.69;;;9.53;100.00
4836;BME280;66719;51.226;6.902;2024-01-30T05:40:01;101848.34;;;9.64;100.00
4836;BME280;66719;51.226;6.902;2024-01-30T05:42:28;101848.38;;;9.70;100.00
4836;BME280;66719;51.226;6.902;2024-01-30T05:44:54;101850.16;;;9.74;100.00
4836;BME280;66719;51.226;6.902;2024-01-30T05:47:21;101853.69;;;9.95;100.00
4836;BME280;66719;51.226;6.902;2024-01-30T05:49:48;101856.28;;;9.85;100.00
4836;BME280;66719;51.226;6.902;2024-01-30T05:52:14;101855.41;;;9.89;100.00
4836;BME280;66719;51.226;6.902;2024-01-30T05:54:41;101852.78;;;9.89;100.00
4836;BME280;66719;51.226;6.902;2024-01-30T05:57:08;101854.53;;;9.87;100.00
4836;BME280;66719;51.226;6.902;2024-01-30T05:59:35;101844.78;;;9.44;100.00
4836;BME280;66719;51.226;6.902;2024-01-30T06:02:07;101853.47;;;9.33;100.00
4836;BME280;66719;51.226;6.902;2024-01-30T06:04:33;101843.91;;;9.39;100.00
4836;BME280;66719;51.226;6.902;2024-01-30T06:07:00;101849.16;;;9.42;100.00
4836;BME280;66719;51.226;6.902;2024-01-30T06:09:28;101846.56;;;9.49;100.00
4836;BME280;66719;51.226;6.902;2024-01-30T06:11:55;101850.84;;;9.38;100.00
4836;BME280;66719;51.226;6.902;2024-01-30T06:14:22;101853.50;;;9.46;100.00
4836;BME280;66719;51.226;6.902;2024-01-30T06:16:48;101851.75;;;9.45;100.00
4836;BME280;66719;51.226;6.902;2024-01-30T06:19:15;101856.16;;;9.47;100.00
4836;BME280;66719;51.226;6.902;2024-01-30T06:21:42;101850.06;;;9.50;100.00
4836;BME280;66719;51.226;6.902;2024-01-30T06:24:08;101843.06;;;9.46;100.00
4836;BME280;66719;51.226;6.902;2024-01-30T06:26:35;101844.00;;;9.61;100.00
4836;BME280;66719;51.226;6.902;2024-01-30T06:29:02;101849.16;;;9.46;100.00
4836;BME280;66719;51.226;6.902;2024-01-30T06:31:28;101842.19;;;9.45;100.00
4836;BME280;66719;51.226;6.902;2024-01-30T06:33:55;101844.72;;;9.22;100.00
4836;BME280;66719;51.226;6.902;2024-01-30T06:36:22;101843.78;;;9.14;100.00
4836;BME280;66719;51.226;6.902;2024-01-30T06:38:48;101839.41;;;9.12;100.00
4836;BME280;66719;51.226;6.902;2024-01-30T06:41:15;101834.22;;;9.16;100.00
4836;BME280;66719;51.226;6.902;2024-01-30T06:43:42;101818.53;;;9.19;100.00
4836;BME280;66719;51.226;6.902;2024-01-30T06:46:08;101834.25;;;9.22;100.00
4836;BME280;66719;51.226;6.902;2024-01-30T06:48:35;101823.84;;;9.38;100.00
4836;BME280;66719;51.226;6.902;2024-01-30T06:51:01;101831.72;;;9.47;100.00
4836;BME280;66719;51.226;6.902;2024-01-30T06:53:28;101829.19;;;9.57;100.00
4836;BME280;66719;51.226;6.902;2024-01-30T06:55:54;101834.34;;;9.41;100.00
4836;BME280;66719;51.226;6.902;2024-01-30T06:58:21;101842.09;;;9.28;100.00
4836;BME280;66719;51.226;6.902;2024-01-30T07:00:48;101833.34;;;9.17;100.00
4836;BME280;66719;51.226;6.902;2024-01-30T07:03:14;101846.47;;;9.29;100.00
4836;BME280;66719;51.226;6.902;2024-01-30T07:05:41;101850.84;;;9.33;100.00
4836;BME280;66719;51.226;6.902;2024-01-30T07:08:07;101850.03;;;9.42;100.00
4836;BME280;66719;51.226;6.902;2024-01-30T07:10:34;101861.38;;;9.52;100.00
4836;BME280;66719;51.226;6.902;2024-01-30T07:13:01;101871.72;;;9.21;100.00
4836;BME280;66719;51.226;6.902;2024-01-30T07:15:27;101869.16;;;9.32;100.00
4836;BME280;66719;51.226;6.902;2024-01-30T07:17:54;101864.00;;;9.47;100.00
4836;BME280;66719;51.226;6.902;2024-01-30T07:20:21;101868.13;;;9.10;100.00
4836;BME280;66719;51.226;6.902;2024-01-30T07:22:48;101862.06;;;9.16;100.00
4836;BME280;66719;51.226;6.902;2024-01-30T07:25:15;101862.03;;;9.08;100.00
4836;BME280;66719;51.226;6.902;2024-01-30T07:27:43;101869.16;;;9.37;100.00
4836;BME280;66719;51.226;6.902;2024-01-30T07:30:10;101868.31;;;9.39;100.00
4836;BME280;66719;51.226;6.902;2024-01-30T07:32:36;101876.94;;;9.26;100.00
4836;BME280;66719;51.226;6.902;2024-01-30T07:35:03;101874.31;;;9.23;100.00
4836;BME280;66719;51.226;6.902;2024-01-30T07:37:34;101879.56;;;9.24;100.00
4836;BME280;66719;51.226;6.902;2024-01-30T07:40:02;101871.75;;;9.32;100.00
4836;BME280;66719;51.226;6.902;2024-01-30T07:42:30;101879.66;;;9.41;100.00
4836;BME280;66719;51.226;6.902;2024-01-30T07:44:56;101880.50;;;9.40;100.00
4836;BME280;66719;51.226;6.902;2024-01-30T07:47:23;101870.09;;;9.49;100.00
4836;BME280;66719;51.226;6.902;2024-01-30T07:49:50;101876.16;;;9.47;100.00
4836;BME280;66719;51.226;6.902;2024-01-30T07:52:17;101877.94;;;9.54;100.00
4836;BME280;66719;51.226;6.902;2024-01-30T07:54:44;101881.47;;;9.59;100.00
4836;BME280;66719;51.226;6.902;2024-01-30T07:57:10;101888.47;;;9.68;100.00
4836;BME280;66719;51.226;6.902;2024-01-30T07:59:37;101889.06;;;9.16;100.00
4836;BME280;66719;51.226;6.902;2024-01-30T08:02:03;101900.44;;;9.21;100.00
4836;BME280;66719;51.226;6.902;2024-01-30T08:04:30;101896.97;;;9.24;100.00
4836;BME280;66719;51.226;6.902;2024-01-30T08:06:57;101893.44;;;9.17;100.00
4836;BME280;66719;51.226;6.902;2024-01-30T08:09:24;101900.47;;;9.27;100.00
4836;BME280;66719;51.226;6.902;2024-01-30T08:11:50;101902.19;;;9.25;100.00
4836;BME280;66719;51.226;6.902;2024-01-30T08:14:18;101897.06;;;9.41;100.00
4836;BME280;66719;51.226;6.902;2024-01-30T08:16:44;101898.66;;;9.14;100.00
4836;BME280;66719;51.226;6.902;2024-01-30T08:19:11;101889.94;;;9.12;100.00
4836;BME280;66719;51.226;6.902;2024-01-30T08:21:38;101891.63;;;9.09;100.00
4836;BME280;66719;51.226;6.902;2024-01-30T08:24:06;101897.84;;;9.26;100.00
4836;BME280;66719;51.226;6.902;2024-01-30T08:26:33;101899.59;;;9.24;100.00
4836;BME280;66719;51.226;6.902;2024-01-30T08:29:01;101895.28;;;9.37;100.00
4836;BME280;66719;51.226;6.902;2024-01-30T08:31:28;101895.38;;;9.49;100.00
4836;BME280;66719;51.226;6.902;2024-01-30T08:33:55;101897.91;;;9.35;100.00
4836;BME280;66719;51.226;6.902;2024-01-30T08:36:22;101902.25;;;9.36;100.00
4836;BME280;66719;51.226;6.902;2024-01-30T08:38:48;101904.00;;;9.37;100.00
4836;BME280;66719;51.226;6.902;2024-01-30T08:41:15;101902.28;;;9.41;100.00
4836;BME280;66719;51.226;6.902;2024-01-30T08:43:41;101896.19;;;9.39;100.00
4836;BME280;66719;51.226;6.902;2024-01-30T08:46:08;101912.66;;;9.28;100.00
4836;BME280;66719;51.226;6.902;2024-01-30T08:48:36;101914.44;;;9.32;100.00
4836;BME280;66719;51.226;6.902;2024-01-30T08:51:03;101910.13;;;9.42;100.00
4836;BME280;66719;51.226;6.902;2024-01-30T08:53:29;101919.69;;;9.35;100.00
4836;BME280;66719;51.226;6.902;2024-01-30T08:55:56;101928.34;;;9.28;100.00
4836;BME280;66719;51.226;6.902;2024-01-30T08:58:25;101930.16;;;9.39;100.00
4836;BME280;66719;51.226;6.902;2024-01-30T09:00:52;101924.94;;;9.39;100.00
4836;BME280;66719;51.226;6.902;2024-01-30T09:03:19;101937.03;;;9.27;100.00
4836;BME280;66719;51.226;6.902;2024-01-30T09:05:46;101937.03;;;9.27;100.00
4836;BME280;66719;51.226;6.902;2024-01-30T09:08:12;101937.91;;;9.26;100.00
4836;BME280;66719;51.226;6.902;2024-01-30T09:10:39;101927.47;;;9.29;100.00
4836;BME280;66719;51.226;6.902;2024-01-30T09:13:05;101952.78;;;9.33;100.00
4836;BME280;66719;51.226;6.902;2024-01-30T09:15:32;101940.53;;;9.29;100.00
4836;BME280;66719;51.226;6.902;2024-01-30T09:17:59;101944.94;;;9.32;100.00
4836;BME280;66719;51.226;6.902;2024-01-30T09:20:25;101949.28;;;9.34;100.00
4836;BME280;66719;51.226;6.902;2024-01-30T09:22:52;101948.47;;;9.45;100.00
4836;BME280;66719;51.226;6.902;2024-01-30T09:25:18;101945.00;;;9.44;100.00
4836;BME280;66719;51.226;6.902;2024-01-30T09:27:46;101951.16;;;9.51;100.00
4836;BME280;66719;51.226;6.902;2024-01-30T09:30:13;101946.75;;;9.44;100.00
4836;BME280;66719;51.226;6.902;2024-01-30T09:32:40;101946.78;;;9.51;100.00
4836;BME280;66719;51.226;6.902;2024-01-30T09:35:07;101945.03;;;9.52;100.00
4836;BME280;66719;51.226;6.902;2024-01-30T09:37:34;101954.69;;;9.57;100.00
4836;BME280;66719;51.226;6.902;2024-01-30T09:40:01;101955.56;;;9.64;100.00
4836;BME280;66719;51.226;6.902;2024-01-30T09:42:35;101958.25;;;9.75;100.00
4836;BME280;66719;51.226;6.902;2024-01-30T09:45:04;101961.75;;;9.80;100.00
4836;BME280;66719;51.226;6.902;2024-01-30T09:47:41;101951.34;;;9.94;100.00
4836;BME280;66719;51.226;6.902;2024-01-30T09:50:12;101942.63;;;9.91;100.00
4836;BME280;66719;51.226;6.902;2024-01-30T09:52:40;101951.34;;;9.94;100.00
4836;BME280;66719;51.226;6.902;2024-01-30T09:55:07;101954.84;;;9.99;100.00
4836;BME280;66719;51.226;6.902;2024-01-30T09:57:35;101954.00;;;10.00;100.00
4836;BME280;66719;51.226;6.902;2024-01-30T10:00:03;101954.84;;;9.91;100.00
4836;BME280;66719;51.226;6.902;2024-01-30T10:02:34;101949.66;;;10.05;100.00
4836;BME280;66719;51.226;6.902;2024-01-30T10:05:00;101953.13;;;10.04;100.00
4836;BME280;66719;51.226;6.902;2024-01-30T10:07:27;101955.75;;;10.02;100.00
4836;BME280;66719;51.226;6.902;2024-01-30T10:09:54;101952.25;;;10.06;100.00
4836;BME280;66719;51.226;6.902;2024-01-30T10:12:27;101960.13;;;10.05;100.00
4836;BME280;66719;51.226;6.902;2024-01-30T10:14:56;101961.03;;;10.19;100.00
4836;BME280;66719;51.226;6.902;2024-01-30T10:17:25;101947.16;;;10.38;100.00
4836;BME280;66719;51.226;6.902;2024-01-30T10:19:59;101955.88;;;10.39;100.00
4836;BME280;66719;51.226;6.902;2024-01-30T10:22:26;101963.75;;;10.46;100.00
4836;BME280;66719;51.226;6.902;2024-01-30T10:24:53;101948.03;;;10.50;100.00
4836;BME280;66719;51.226;6.902;2024-01-30T10:27:27;101955.94;;;10.63;100.00
4836;BME280;66719;51.226;6.902;2024-01-30T10:29:54;101955.06;;;10.67;100.00
4836;BME280;66719;51.226;6.902;2024-01-30T10:32:20;101958.56;;;10.74;100.00
4836;BME280;66719;51.226;6.902;2024-01-30T10:34:47;101962.94;;;10.87;100.00
4836;BME280;66719;51.226;6.902;2024-01-30T10:37:15;101961.19;;;10.94;100.00
4836;BME280;66719;51.226;6.902;2024-01-30T10:39:46;101952.44;;;10.93;100.00
4836;BME280;66719;51.226;6.902;2024-01-30T10:42:15;101947.22;;;11.06;100.00
4836;BME280;66719;51.226;6.902;2024-01-30T10:45:26;101949.84;;;10.73;100.00
4836;BME280;66719;51.226;6.902;2024-01-30T10:47:49;101948.06;;;10.65;100.00
4836;BME280;66719;51.226;6.902;2024-01-30T10:50:16;101948.94;;;10.64;100.00
4836;BME280;66719;51.226;6.902;2024-01-30T10:52:44;101954.19;;;10.71;100.00
4836;BME280;66719;51.226;6.902;2024-01-30T10:55:11;101962.06;;;10.81;100.00
4836;BME280;66719;51.226;6.902;2024-01-30T10:57:38;101961.19;;;10.89;100.00
4836;BME280;66719;51.226;6.902;2024-01-30T11:00:08;101950.72;;;10.80;100.00
4836;BME280;66719;51.226;6.902;2024-01-30T11:02:39;101948.97;;;10.87;100.00
4836;BME280;66719;51.226;6.902;2024-01-30T11:05:06;101948.09;;;10.91;100.00
4836;BME280;66719;51.226;6.902;2024-01-30T11:07:34;101949.84;;;10.98;100.00
4836;BME280;66719;51.226;6.902;2024-01-30T11:10:03;101948.97;;;11.05;100.00
4836;BME280;66719;51.226;6.902;2024-01-30T11:12:31;101955.94;;;11.09;100.00
4836;BME280;66719;51.226;6.902;2024-01-30T11:15:08;101961.19;;;11.14;100.00
4836;BME280;66719;51.226;6.902;2024-01-30T11:22:47;101962.97;;;10.95;100.00
4836;BME280;66719;51.226;6.902;2024-01-30T11:25:15;101964.69;;;10.97;100.00
4836;BME280;66719;51.226;6.902;2024-01-30T11:27:43;101965.56;;;11.06;100.00
4836;BME280;66719;51.226;6.902;2024-01-30T11:30:10;101971.69;;;10.97;100.00
4836;BME280;66719;51.226;6.902;2024-01-30T11:32:37;101967.28;;;10.94;100.00
4836;BME280;66719;51.226;6.902;2024-01-30T11:35:05;101960.31;;;10.98;100.00
4836;BME280;66719;51.226;6.902;2024-01-30T11:37:36;101955.06;;;10.93;100.00
4836;BME280;66719;51.226;6.902;2024-01-30T11:40:05;101953.31;;;10.92;100.00
4836;BME280;66719;51.226;6.902;2024-01-30T11:42:32;101955.94;;;10.92;100.00
4836;BME280;66719;51.226;6.902;2024-01-30T11:45:02;101955.06;;;10.99;100.00
4836;BME280;66719;51.226;6.902;2024-01-30T11:47:29;101948.97;;;10.99;100.00
4836;BME280;66719;51.226;6.902;2024-01-30T11:49:58;101955.09;;;10.96;100.00
4836;BME280;66719;51.226;6.902;2024-01-30T11:52:26;101960.31;;;10.98;100.00
4836;BME280;66719;51.226;6.902;2024-01-30T11:54:54;101955.97;;;10.88;100.00
4836;BME280;66719;51.226;6.902;2024-01-30T11:57:21;101960.34;;;10.87;100.00
4836;BME280;66719;51.226;6.902;2024-01-30T11:59:47;101950.72;;;10.91;100.00
4836;BME280;66719;51.226;6.902;2024-01-30T12:02:17;101962.06;;;10.91;100.00
4836;BME280;66719;51.226;6.902;2024-01-30T12:04:44;101965.56;;;10.90;100.00
4836;BME280;66719;51.226;6.902;2024-01-30T12:07:11;101961.19;;;10.92;100.00
4836;BME280;66719;51.226;6.902;2024-01-30T12:09:38;101963.84;;;10.95;100.00
4836;BME280;66719;51.226;6.902;2024-01-30T12:12:06;101958.56;;;10.91;100.00
4836;BME280;66719;51.226;6.902;2024-01-30T12:14:33;101962.94;;;10.92;100.00
4836;BME280;66719;51.226;6.902;2024-01-30T12:17:00;101968.16;;;10.84;100.00
4836;BME280;66719;51.226;6.902;2024-01-30T12:19:26;101963.81;;;10.83;100.00
4836;BME280;66719;51.226;6.902;2024-01-30T12:21:54;101951.59;;;10.82;100.00
4836;BME280;66719;51.226;6.902;2024-01-30T12:24:22;101949.84;;;10.96;100.00
4836;BME280;66719;51.226;6.902;2024-01-30T12:26:50;101948.09;;;11.04;100.00
4836;BME280;66719;51.226;6.902;2024-01-30T12:29:20;101954.22;;;11.07;100.00
4836;BME280;66719;51.226;6.902;2024-01-30T12:31:47;101959.44;;;11.10;100.00
4836;BME280;66719;51.226;6.902;2024-01-30T12:34:14;101948.06;;;11.11;100.00
4836;BME280;66719;51.226;6.902;2024-01-30T12:36:43;101953.31;;;11.17;100.00
4836;BME280;66719;51.226;6.902;2024-01-30T12:39:14;101948.09;;;11.23;100.00
4836;BME280;66719;51.226;6.902;2024-01-30T12:41:41;101943.72;;;11.29;100.00
4836;BME280;66719;51.226;6.902;2024-01-30T12:44:08;101948.06;;;11.35;100.00
4836;BME280;66719;51.226;6.902;2024-01-30T12:46:35;101953.28;;;11.37;100.00
4836;BME280;66719;51.226;6.902;2024-01-30T12:49:01;101955.06;;;11.30;100.00
4836;BME280;66719;51.226;6.902;2024-01-30T12:51:28;101943.69;;;11.26;100.00
4836;BME280;66719;51.226;6.902;2024-01-30T12:53:55;101949.81;;;11.30;100.00
4836;BME280;66719;51.226;6.902;2024-01-30T12:56:22;101947.19;;;11.25;100.00
4836;BME280;66719;51.226;6.902;2024-01-30T12:58:48;101947.19;;;11.25;100.00
4836;BME280;66719;51.226;6.902;2024-01-30T13:01:19;101949.81;;;11.27;100.00
4836;BME280;66719;51.226;6.902;2024-01-30T13:03:46;101948.94;;;11.29;100.00